createdAt,value
2022-12-29T00:00:01.381Z,99829.84
2022-12-29T00:02:29.597Z,99822.59
2022-12-29T00:04:57.536Z,99822.78
2022-12-29T00:07:25.582Z,99818.53
2022-12-29T00:09:53.628Z,99831.72
2022-12-29T00:12:21.502Z,99822.09
2022-12-29T00:15:08.676Z,99822.94
2022-12-29T00:17:36.840Z,99821.59
2022-12-29T00:20:23.192Z,99822.59
2022-12-29T00:23:09.863Z,99824.13
2022-12-29T00:25:56.262Z,99815.53
2022-12-29T00:28:41.621Z,99828.00
2022-12-29T00:31:31.597Z,99821.78
2022-12-29T00:34:17.788Z,99805.75
2022-12-29T00:36:46.592Z,99815.34
2022-12-29T00:39:34.709Z,99810.16
2022-12-29T00:42:22.946Z,99803.56
2022-12-29T00:44:51.026Z,99801.72
2022-12-29T00:47:20.384Z,99783.31
2022-12-29T00:49:47.437Z,99796.66
2022-12-29T00:52:16.118Z,99776.25
2022-12-29T00:54:46.889Z,99792.25
2022-12-29T00:57:14.998Z,99793.63
2022-12-29T00:59:44.167Z,99795.81
2022-12-29T01:02:12.694Z,99792.25
2022-12-29T01:04:42.387Z,99785.84
2022-12-29T01:07:10.397Z,99787.19
2022-12-29T01:09:56.541Z,99789.06
2022-12-29T01:12:38.431Z,99790.75
2022-12-29T01:15:07.769Z,99789.41
2022-12-29T01:17:35.864Z,99779.78
2022-12-29T01:20:05.973Z,99780.94
2022-12-29T01:22:33.973Z,99776.22
2022-12-29T01:25:01.913Z,99776.91
2022-12-29T01:27:29.903Z,99771.50
2022-12-29T01:29:57.798Z,99777.75
2022-12-29T01:32:26.010Z,99717.91
2022-12-29T01:34:53.896Z,99774.84
2022-12-29T01:37:23.704Z,99766.09
2022-12-29T01:39:51.695Z,99737.94
2022-12-29T01:42:21.905Z,99752.41
2022-12-29T01:44:53.389Z,99747.34
2022-12-29T01:47:28.578Z,99736.09
2022-12-29T01:49:59.247Z,99736.22
2022-12-29T01:52:32.198Z,99736.56
2022-12-29T01:55:01.702Z,99728.31
2022-12-29T01:57:33.810Z,99736.75
2022-12-29T02:00:05.744Z,99722.91
2022-12-29T02:02:42.486Z,99730.16
2022-12-29T02:05:16.126Z,99727.97
2022-12-29T02:07:50.763Z,99726.59
2022-12-29T02:10:21.393Z,99723.22
2022-12-29T02:12:50.085Z,99724.56
2022-12-29T02:15:19.506Z,99716.63
2022-12-29T02:18:02.527Z,99718.28
2022-12-29T02:21:06.228Z,99708.53
2022-12-29T02:24:10.502Z,99704.22
2022-12-29T02:26:56.238Z,99706.94
2022-12-29T02:30:00.550Z,99703.72
2022-12-29T02:32:38.824Z,99700.69
2022-12-29T02:35:16.501Z,99696.63
2022-12-29T02:37:57.047Z,99694.31
2022-12-29T02:40:39.645Z,99698.84
2022-12-29T02:43:20.262Z,99693.13
2022-12-29T02:45:59.824Z,99690.13
2022-12-29T02:48:37.771Z,99697.69
2022-12-29T02:51:12.934Z,99693.16
2022-12-29T02:53:58.860Z,99686.56
2022-12-29T02:56:27.396Z,99676.28
2022-12-29T02:58:55.392Z,99670.06
2022-12-29T03:01:39.430Z,99668.19
2022-12-29T03:04:33.425Z,99659.56
2022-12-29T03:07:14.363Z,99665.81
2022-12-29T03:09:54.787Z,99663.13
2022-12-29T03:12:49.421Z,99676.75
2022-12-29T03:15:41.001Z,99671.88
2022-12-29T03:18:16.879Z,99675.22
2022-12-29T03:20:53.121Z,99671.03
2022-12-29T03:23:22.955Z,99665.50
2022-12-29T03:25:55.814Z,99664.31
2022-12-29T03:28:27.848Z,99661.28
2022-12-29T03:30:57.402Z,99635.84
2022-12-29T03:33:29.666Z,99648.59
2022-12-29T03:36:05.143Z,99642.00
2022-12-29T03:38:39.349Z,99651.63
2022-12-29T03:41:13.857Z,99651.28
2022-12-29T03:43:42.226Z,99639.50
2022-12-29T03:46:11.196Z,99624.66
2022-12-29T03:48:40.669Z,99628.72
2022-12-29T03:51:12.253Z,99625.50
2022-12-29T03:53:40.649Z,99618.78
2022-12-29T03:56:09.688Z,99554.63
2022-12-29T03:58:37.710Z,99598.88
2022-12-29T04:01:10.489Z,99599.72
2022-12-29T04:03:40.514Z,99586.56
2022-12-29T04:06:09.694Z,99584.88
2022-12-29T04:08:45.834Z,99559.66
2022-12-29T04:11:14.430Z,99584.69
2022-12-29T04:13:43.571Z,99585.41
2022-12-29T04:16:15.536Z,99564.69
2022-12-29T04:18:43.775Z,99586.91
2022-12-29T04:21:11.743Z,99584.91
2022-12-29T04:23:42.449Z,99586.06
2022-12-29T04:26:13.049Z,99530.00
2022-12-29T04:28:52.992Z,99562.28
2022-12-29T04:31:43.902Z,99578.97
2022-12-29T04:34:12.590Z,99566.97
2022-12-29T04:36:41.155Z,99558.69
2022-12-29T04:39:09.795Z,99539.53
2022-12-29T04:41:41.386Z,99548.75
2022-12-29T04:44:14.058Z,99559.50
2022-12-29T04:46:59.713Z,99550.72
2022-12-29T04:49:50.854Z,99553.72
2022-12-29T04:52:37.461Z,99549.47
2022-12-29T04:55:06.699Z,99540.84
2022-12-29T04:57:37.085Z,99542.00
2022-12-29T05:00:06.377Z,99533.34
2022-12-29T05:02:37.505Z,99535.56
2022-12-29T05:05:06.679Z,99531.38
2022-12-29T05:07:37.134Z,99535.09
2022-12-29T05:10:06.307Z,99529.69
2022-12-29T05:12:39.075Z,99523.44
2022-12-29T05:15:11.006Z,99514.50
2022-12-29T05:17:39.764Z,99509.97
2022-12-29T05:20:10.182Z,99500.06
2022-12-29T05:22:38.996Z,99516.50
2022-12-29T05:25:08.352Z,99517.06
2022-12-29T05:27:48.890Z,99508.66
2022-12-29T05:30:26.216Z,99512.50
2022-12-29T05:32:54.752Z,99506.94
2022-12-29T05:35:22.715Z,99505.94
2022-12-29T05:37:50.791Z,99499.00
2022-12-29T05:40:19.050Z,99503.75
2022-12-29T05:42:48.377Z,99498.72
2022-12-29T05:45:34.802Z,99492.19
2022-12-29T05:48:16.374Z,99488.28
2022-12-29T05:51:02.672Z,99488.66
2022-12-29T05:53:48.694Z,99481.06
2022-12-29T05:56:17.608Z,99426.75
2022-12-29T05:58:49.535Z,99473.66
2022-12-29T06:01:17.825Z,99478.84
2022-12-29T06:03:48.576Z,99470.22
2022-12-29T06:06:17.708Z,99470.41
2022-12-29T06:08:45.945Z,99469.97
2022-12-29T06:11:15.262Z,99462.91
2022-12-29T06:13:51.895Z,99444.00
2022-12-29T06:16:20.613Z,99458.50
2022-12-29T06:18:50.449Z,99455.66
2022-12-29T06:21:18.501Z,99448.03
2022-12-29T06:23:48.212Z,99437.06
2022-12-29T06:26:16.215Z,99445.16
2022-12-29T06:28:44.766Z,99442.94
2022-12-29T06:31:14.306Z,99438.38
2022-12-29T06:33:42.511Z,99444.63
2022-12-29T06:36:11.663Z,99440.06
2022-12-29T06:38:39.740Z,99438.38
2022-12-29T06:41:07.674Z,99436.34
2022-12-29T06:43:58.177Z,99427.41
2022-12-29T06:46:39.422Z,99420.97
2022-12-29T06:49:07.400Z,99424.53
2022-12-29T06:51:35.385Z,99444.28
2022-12-29T06:54:03.542Z,99437.72
2022-12-29T06:56:31.488Z,99430.16
2022-12-29T06:59:01.091Z,99430.88
2022-12-29T07:01:29.274Z,99430.38
2022-12-29T07:03:58.722Z,99418.44
2022-12-29T07:06:26.629Z,99420.66
2022-12-29T07:08:56.179Z,99422.88
2022-12-29T07:11:24.293Z,99413.13
2022-12-29T07:13:52.332Z,99407.72
2022-12-29T07:16:21.156Z,99411.56
2022-12-29T07:18:49.270Z,99405.19
2022-12-29T07:21:18.584Z,99399.63
2022-12-29T07:23:46.620Z,99390.19
2022-12-29T07:26:18.667Z,99390.19
2022-12-29T07:28:46.925Z,99386.97
2022-12-29T07:31:17.238Z,99380.59
2022-12-29T07:33:45.763Z,99374.88
2022-12-29T07:36:14.872Z,99376.72
2022-12-29T07:38:44.664Z,99369.81
2022-12-29T07:41:12.687Z,99366.78
2022-12-29T07:43:40.831Z,99367.13
2022-12-29T07:46:53.986Z,99365.38
2022-12-29T07:49:13.989Z,99355.31
2022-12-29T07:51:41.858Z,99352.63
2022-12-29T07:54:13.128Z,99343.16
2022-12-29T07:56:41.418Z,99347.88
2022-12-29T07:59:09.370Z,99349.53
2022-12-29T08:01:37.917Z,99349.38
2022-12-29T08:04:06.296Z,99347.03
2022-12-29T08:06:34.408Z,99333.75
2022-12-29T08:09:09.834Z,99338.25
2022-12-29T08:11:43.926Z,99333.19
2022-12-29T08:14:12.218Z,99334.88
2022-12-29T08:16:40.215Z,99326.78
2022-12-29T08:19:08.241Z,99331.16
2022-12-29T08:21:36.267Z,99320.56
2022-12-29T08:24:04.599Z,99318.56
2022-12-29T08:26:32.563Z,99322.13
2022-12-29T08:29:01.922Z,99320.31
2022-12-29T08:31:30.023Z,99317.69
2022-12-29T08:33:58.097Z,99320.72
2022-12-29T08:36:26.108Z,99299.16
2022-12-29T08:38:54.319Z,99298.50
2022-12-29T08:41:22.264Z,99298.19
2022-12-29T08:43:52.115Z,99301.72
2022-12-29T08:46:21.602Z,99298.00
2022-12-29T08:48:49.569Z,99299.19
2022-12-29T08:51:21.458Z,99294.00
2022-12-29T08:53:52.684Z,99288.75
2022-12-29T08:56:20.768Z,99276.31
2022-12-29T08:58:52.456Z,99275.13
2022-12-29T09:01:23.744Z,99266.50
2022-12-29T09:04:14.441Z,99257.75
2022-12-29T09:06:41.010Z,99256.41
2022-12-29T09:09:09.502Z,99253.91
2022-12-29T09:11:37.596Z,99248.72
2022-12-29T09:14:05.686Z,99231.69
2022-12-29T09:16:35.975Z,99226.13
2022-12-29T09:19:04.706Z,99215.22
2022-12-29T09:21:32.958Z,99224.06
2022-12-29T09:24:00.887Z,99223.06
2022-12-29T09:26:28.895Z,99214.97
2022-12-29T09:28:57.854Z,99220.88
2022-12-29T09:31:26.174Z,99215.94
2022-12-29T09:33:55.640Z,99214.09
2022-12-29T09:36:23.655Z,99204.50
2022-12-29T09:38:52.139Z,99203.56
2022-12-29T09:41:27.458Z,99200.13
2022-12-29T09:44:14.472Z,99190.38
2022-12-29T09:46:46.560Z,99193.63
2022-12-29T09:49:24.750Z,99184.69
2022-12-29T09:51:55.706Z,99168.03
2022-12-29T09:54:36.914Z,99169.72
2022-12-29T09:57:05.270Z,99153.09
2022-12-29T09:59:42.111Z,99160.94
2022-12-29T10:02:25.887Z,99160.28
2022-12-29T10:04:55.402Z,99147.66
2022-12-29T10:07:41.932Z,99146.81
2022-12-29T10:10:22.480Z,99149.34
2022-12-29T10:13:02.830Z,99136.03
2022-12-29T10:15:48.220Z,99127.09
2022-12-29T10:18:30.961Z,99113.03
2022-12-29T10:21:06.361Z,99120.06
2022-12-29T10:23:38.060Z,99072.25
2022-12-29T10:26:11.999Z,99116.72
2022-12-29T10:28:43.281Z,99103.88
2022-12-29T10:31:16.799Z,99071.31
2022-12-29T10:33:45.626Z,99102.19
2022-12-29T10:36:23.713Z,99099.16
2022-12-29T10:39:01.145Z,99093.41
2022-12-29T10:41:36.631Z,99082.63
2022-12-29T10:44:04.633Z,99078.91
2022-12-29T10:46:37.301Z,99067.94
2022-12-29T10:49:06.865Z,99068.44
2022-12-29T10:51:40.215Z,99059.13
2022-12-29T10:54:16.941Z,99062.47
2022-12-29T10:56:48.059Z,99043.31
2022-12-29T10:59:20.736Z,99041.91
2022-12-29T11:02:00.102Z,99035.88
2022-12-29T11:04:40.425Z,99030.69
2022-12-29T11:07:15.660Z,99037.09
2022-12-29T11:09:46.182Z,99028.34
2022-12-29T11:12:22.929Z,99029.84
2022-12-29T11:15:04.833Z,99028.34
2022-12-29T11:17:45.631Z,99019.63
2022-12-29T11:20:29.799Z,99025.00
2022-12-29T11:22:59.242Z,99011.91
2022-12-29T11:25:27.362Z,99018.94
2022-12-29T11:27:59.948Z,99018.41
2022-12-29T11:30:30.979Z,98999.34
2022-12-29T11:33:00.263Z,99010.34
2022-12-29T11:35:37.620Z,99000.56
2022-12-29T11:38:21.885Z,98982.25
2022-12-29T11:40:50.737Z,98983.81
2022-12-29T11:43:26.016Z,98967.00
2022-12-29T11:45:57.537Z,98968.75
2022-12-29T11:48:30.327Z,98963.91
2022-12-29T11:51:01.339Z,98954.53
2022-12-29T11:53:40.247Z,98962.09
2022-12-29T11:56:11.154Z,98952.69
2022-12-29T11:58:40.557Z,98941.47
2022-12-29T12:01:15.227Z,98933.19
2022-12-29T12:03:50.162Z,98936.09
2022-12-29T12:06:25.146Z,98921.59
2022-12-29T12:08:58.525Z,98926.97
2022-12-29T12:11:36.843Z,98920.78
2022-12-29T12:14:14.312Z,98927.16
2022-12-29T12:17:06.720Z,98924.84
2022-12-29T12:19:40.086Z,98901.22
2022-12-29T12:22:15.571Z,98923.81
2022-12-29T12:24:50.429Z,98919.44
2022-12-29T12:27:22.646Z,98866.94
2022-12-29T12:29:58.916Z,98911.66
2022-12-29T12:32:39.004Z,98909.91
2022-12-29T12:35:07.472Z,98917.47
2022-12-29T12:37:58.670Z,98914.31
2022-12-29T12:40:51.845Z,98914.41
2022-12-29T12:43:46.554Z,98913.84
2022-12-29T12:46:33.186Z,98907.44
2022-12-29T12:49:31.956Z,98902.22
2022-12-29T12:52:11.118Z,98899.72
2022-12-29T12:54:56.803Z,98904.47
2022-12-29T12:57:38.913Z,98897.31
2022-12-29T13:00:13.093Z,98883.25
2022-12-29T13:02:54.349Z,98883.53
2022-12-29T13:05:40.758Z,98879.34
2022-12-29T13:08:33.738Z,98862.38
2022-12-29T13:11:11.415Z,98875.84
2022-12-29T13:13:58.608Z,98870.19
2022-12-29T13:16:33.887Z,98865.53
2022-12-29T13:19:11.022Z,98858.66
2022-12-29T13:22:00.013Z,98850.56
2022-12-29T13:24:42.334Z,98863.56
2022-12-29T13:27:18.611Z,98856.91
2022-12-29T13:29:58.167Z,98848.81
2022-12-29T13:32:37.197Z,98848.97
2022-12-29T13:35:18.950Z,98851.69
2022-12-29T13:37:52.207Z,98856.06
2022-12-29T13:40:26.253Z,98849.66
2022-12-29T13:42:55.150Z,98815.81
2022-12-29T13:45:27.512Z,98845.34
2022-12-29T13:48:02.138Z,98837.75
2022-12-29T13:50:34.306Z,98840.22
2022-12-29T13:53:10.816Z,98833.47
2022-12-29T13:55:47.606Z,98842.03
2022-12-29T13:58:25.292Z,98837.28
2022-12-29T14:01:00.146Z,98829.19
2022-12-29T14:03:49.024Z,98827.78
2022-12-29T14:06:22.102Z,98825.91
2022-12-29T14:08:51.828Z,98826.56
2022-12-29T14:11:25.438Z,98821.84
2022-12-29T14:13:53.812Z,98823.69
2022-12-29T14:16:32.752Z,98818.34
2022-12-29T14:19:12.999Z,98811.75
2022-12-29T14:21:42.177Z,98805.34
2022-12-29T14:24:41.184Z,98810.75
2022-12-29T14:27:42.678Z,98794.31
2022-12-29T14:30:44.130Z,98801.34
2022-12-29T14:33:16.698Z,98793.94
2022-12-29T14:35:46.939Z,98796.88
2022-12-29T14:38:26.620Z,98794.06
2022-12-29T14:41:20.528Z,98799.00
2022-12-29T14:43:59.538Z,98777.44
2022-12-29T14:46:44.425Z,98765.72
2022-12-29T14:49:19.223Z,98771.03
2022-12-29T14:51:48.519Z,98775.28
2022-12-29T14:54:50.328Z,98770.38
2022-12-29T14:57:38.215Z,98766.28
2022-12-29T15:00:18.339Z,98771.34
2022-12-29T15:02:50.238Z,98743.22
2022-12-29T15:05:33.943Z,98763.94
2022-12-29T15:08:03.439Z,98769.59
2022-12-29T15:10:39.358Z,98767.53
2022-12-29T15:13:17.070Z,98767.78
2022-12-29T15:15:45.182Z,98769.72
2022-12-29T15:18:24.281Z,98763.09
2022-12-29T15:20:57.709Z,98762.88
2022-12-29T15:23:26.045Z,98764.97
2022-12-29T15:25:57.576Z,98760.88
2022-12-29T15:28:26.184Z,98765.44
2022-12-29T15:30:56.432Z,98763.81
2022-12-29T15:33:25.936Z,98750.09
2022-12-29T15:35:57.609Z,98747.22
2022-12-29T15:38:33.421Z,98750.94
2022-12-29T15:41:08.908Z,98747.38
2022-12-29T15:43:49.724Z,98747.91
2022-12-29T15:46:18.244Z,98746.75
2022-12-29T15:48:46.525Z,98742.28
2022-12-29T15:51:22.212Z,98738.13
2022-12-29T15:53:52.460Z,98738.47
2022-12-29T15:56:20.574Z,98747.13
2022-12-29T15:58:51.396Z,98751.25
2022-12-29T16:01:21.495Z,98744.97
2022-12-29T16:03:50.823Z,98761.59
2022-12-29T16:06:32.088Z,98754.16
2022-12-29T16:09:03.608Z,98749.78
2022-12-29T16:11:35.859Z,98746.69
2022-12-29T16:14:08.673Z,98744.63
2022-12-29T16:16:40.520Z,98748.66
2022-12-29T16:19:15.485Z,98752.25
2022-12-29T16:21:45.634Z,98750.38
2022-12-29T16:24:17.012Z,98750.59
2022-12-29T16:26:50.443Z,98742.25
2022-12-29T16:29:21.422Z,98750.34
2022-12-29T16:32:01.566Z,98755.16
2022-12-29T16:34:32.932Z,98749.75
2022-12-29T16:37:04.751Z,98751.81
2022-12-29T16:39:35.836Z,98753.47
2022-12-29T16:42:37.605Z,98737.28
2022-12-29T16:45:43.534Z,98746.41
2022-12-29T16:48:22.000Z,98741.03
2022-12-29T16:50:51.362Z,98744.94
2022-12-29T16:53:25.936Z,98742.91
2022-12-29T16:55:55.441Z,98746.53
2022-12-29T16:58:28.539Z,98741.53
2022-12-29T17:00:57.733Z,98742.66
2022-12-29T17:03:33.319Z,98736.28
2022-12-29T17:06:01.273Z,98755.63
2022-12-29T17:08:30.685Z,98746.53
2022-12-29T17:11:16.787Z,98745.94
2022-12-29T17:13:44.858Z,98745.53
2022-12-29T17:16:13.420Z,98759.28
2022-12-29T17:18:41.402Z,98763.22
2022-12-29T17:21:09.488Z,98770.84
2022-12-29T17:23:38.849Z,98770.63
2022-12-29T17:26:09.334Z,98765.81
2022-12-29T17:28:37.332Z,98770.97
2022-12-29T17:31:08.014Z,98774.28
2022-12-29T17:33:38.659Z,98771.75
2022-12-29T17:36:07.048Z,98766.13
2022-12-29T17:38:38.487Z,98773.94
2022-12-29T17:41:13.997Z,98768.75
2022-12-29T17:43:42.175Z,98762.72
2022-12-29T17:46:10.192Z,98766.88
2022-12-29T17:48:38.300Z,98761.66
2022-12-29T17:51:06.588Z,98753.16
2022-12-29T17:53:34.554Z,98752.31
2022-12-29T17:56:04.107Z,98758.47
2022-12-29T17:58:33.828Z,98763.63
2022-12-29T18:01:04.025Z,98766.72
2022-12-29T18:03:35.607Z,98763.38
2022-12-29T18:06:06.712Z,98762.50
2022-12-29T18:08:36.044Z,98766.81
2022-12-29T18:11:07.187Z,98774.06
2022-12-29T18:13:45.945Z,98777.59
2022-12-29T18:16:15.400Z,98774.06
2022-12-29T18:18:43.583Z,98778.22
2022-12-29T18:21:17.608Z,98788.44
2022-12-29T18:23:46.227Z,98761.09
2022-12-29T18:26:23.920Z,98730.75
2022-12-29T18:28:55.556Z,98791.66
2022-12-29T18:31:25.381Z,98783.97
2022-12-29T18:33:54.872Z,98788.25
2022-12-29T18:36:23.326Z,98789.47
2022-12-29T18:38:53.295Z,98769.88
2022-12-29T18:41:24.066Z,98790.56
2022-12-29T18:43:52.423Z,98789.53
2022-12-29T18:46:23.170Z,98793.53
2022-12-29T18:48:51.804Z,98789.78
2022-12-29T18:51:21.653Z,98798.34
2022-12-29T18:53:50.828Z,98781.69
2022-12-29T18:56:18.781Z,98794.03
2022-12-29T18:58:48.128Z,98792.81
2022-12-29T19:01:20.861Z,98801.53
2022-12-29T19:03:49.433Z,98806.94
2022-12-29T19:06:17.560Z,98812.16
2022-12-29T19:08:45.588Z,98808.63
2022-12-29T19:11:13.861Z,98801.53
2022-12-29T19:13:41.808Z,98807.78
2022-12-29T19:16:18.631Z,98813.38
2022-12-29T19:18:58.284Z,98816.63
2022-12-29T19:21:34.807Z,98809.38
2022-12-29T19:24:02.819Z,98819.97
2022-12-29T19:26:34.513Z,98814.56
2022-12-29T19:29:03.314Z,98810.22
2022-12-29T19:31:32.857Z,98813.50
2022-12-29T19:34:02.038Z,98803.34
2022-12-29T19:36:30.213Z,98808.53
2022-12-29T19:38:58.311Z,98808.16
2022-12-29T19:41:26.589Z,98802.97
2022-12-29T19:43:54.652Z,98802.31
2022-12-29T19:46:23.322Z,98805.22
2022-12-29T19:48:54.837Z,98798.97
2022-12-29T19:51:22.875Z,98805.59
2022-12-29T19:53:50.888Z,98814.16
2022-12-29T19:56:19.363Z,98819.34
2022-12-29T19:58:47.973Z,98817.47
2022-12-29T20:01:18.295Z,98820.81
2022-12-29T20:03:46.548Z,98824.19
2022-12-29T20:06:16.930Z,98826.47
2022-12-29T20:08:45.036Z,98821.91
2022-12-29T20:11:15.348Z,98833.16
2022-12-29T20:13:43.853Z,98828.78
2022-12-29T20:16:15.293Z,98826.91
2022-12-29T20:18:44.394Z,98825.69
2022-12-29T20:21:16.046Z,98823.22
2022-12-29T20:23:45.031Z,98811.94
2022-12-29T20:26:15.472Z,98836.09
2022-12-29T20:28:43.891Z,98839.41
2022-12-29T20:31:18.913Z,98834.19
2022-12-29T20:33:47.352Z,98835.59
2022-12-29T20:36:19.120Z,98817.22
2022-12-29T20:38:49.528Z,98834.03
2022-12-29T20:41:17.934Z,98832.94
2022-12-29T20:43:46.305Z,98830.84
2022-12-29T20:46:20.505Z,98828.13
2022-12-29T20:48:50.198Z,98829.72
2022-12-29T20:51:21.004Z,98826.03
2022-12-29T20:53:49.595Z,98824.72
2022-12-29T20:56:19.973Z,98821.31
2022-12-29T21:01:38.050Z,98813.69
2022-12-29T21:04:06.651Z,98819.25
2022-12-29T21:06:36.591Z,98822.81
2022-12-29T21:09:05.546Z,98829.78
2022-12-29T21:11:33.511Z,98827.50
2022-12-29T21:14:01.683Z,98827.88
2022-12-29T21:16:30.271Z,98827.03
2022-12-29T21:18:58.219Z,98830.19
2022-12-29T21:21:27.737Z,98834.91
2022-12-29T21:24:05.426Z,98835.56
2022-12-29T21:26:35.050Z,98831.66
2022-12-29T21:29:04.354Z,98841.03
2022-12-29T21:31:35.783Z,98834.63
2022-12-29T21:34:05.271Z,98834.25
2022-12-29T21:36:34.160Z,98813.34
2022-12-29T21:39:04.327Z,98849.00
2022-12-29T21:41:32.665Z,98848.16
2022-12-29T21:44:18.881Z,98848.44
2022-12-29T21:46:48.816Z,98844.38
2022-12-29T21:49:17.183Z,98838.41
2022-12-29T21:51:51.528Z,98843.44
2022-12-29T21:54:40.494Z,98844.63
2022-12-29T21:57:09.185Z,98847.72
2022-12-29T21:59:54.445Z,98857.28
2022-12-29T22:02:42.003Z,98849.00
2022-12-29T22:05:29.645Z,98853.38
2022-12-29T22:08:15.275Z,98847.13
2022-12-29T22:11:04.217Z,98849.84
2022-12-29T22:13:33.049Z,98848.34
2022-12-29T22:16:03.653Z,98854.38
2022-12-29T22:18:31.760Z,98853.38
2022-12-29T22:20:59.707Z,98854.47
2022-12-29T22:23:27.811Z,98860.50
2022-12-29T22:25:57.096Z,98855.94
2022-12-29T22:28:25.287Z,98865.53
2022-12-29T22:30:53.378Z,98860.75
2022-12-29T22:33:21.427Z,98866.16
2022-12-29T22:35:49.376Z,98862.44
2022-12-29T22:38:17.327Z,98872.88
2022-12-29T22:40:45.273Z,98868.09
2022-12-29T22:43:14.656Z,98865.03
2022-12-29T22:45:42.799Z,98863.13
2022-12-29T22:48:10.770Z,98874.97
2022-12-29T22:50:40.370Z,98853.72
2022-12-29T22:53:08.310Z,98878.25
2022-12-29T22:55:36.326Z,98881.75
2022-12-29T22:58:04.456Z,98882.34
2022-12-29T23:00:34.406Z,98877.16
2022-12-29T23:03:02.589Z,98881.88
2022-12-29T23:05:30.797Z,98889.97
2022-12-29T23:07:58.771Z,98892.25
2022-12-29T23:10:27.063Z,98892.63
2022-12-29T23:12:55.108Z,98889.91
2022-12-29T23:15:23.087Z,98893.25
2022-12-29T23:17:52.358Z,98888.69
2022-12-29T23:20:20.263Z,98889.06
2022-12-29T23:22:48.341Z,98894.28
2022-12-29T23:25:16.408Z,98893.88
2022-12-29T23:27:44.351Z,98887.84
2022-12-29T23:30:12.711Z,98893.88
2022-12-29T23:32:40.655Z,98903.88
2022-12-29T23:35:11.695Z,98899.28
2022-12-29T23:37:39.639Z,98897.63
2022-12-29T23:40:08.820Z,98900.31
2022-12-29T23:42:36.781Z,98895.56
2022-12-29T23:45:06.695Z,98892.03
2022-12-29T23:47:34.675Z,98899.03
2022-12-29T23:50:02.626Z,98894.28
2022-12-29T23:52:31.978Z,98904.69
2022-12-29T23:54:59.998Z,98905.34
2022-12-29T23:57:27.977Z,98897.53
2022-12-29T23:59:56.016Z,98905.22
